Time;durP1;ratioP1;P1;durP2;ratioP2;P2;SDS_P1;SDS_P2;PMS_P1;PMS_P2;Temp;Humidity;BMP_temperature;BMP_pressure;BME280_temperature;BME280_humidity;BME280_pressure;Samples;Min_cycle;Max_cycle;Signal;HPM_P1;HPM_P2
2023/05/19 00:01:53;;;;;;;4.38;3.17;;;;;;;;;;5049621;28;20048;-65
2023/05/19 00:04:21;;;;;;;8.35;3.30;;;;;;;;;;5050031;28;20075;-65
2023/05/19 00:06:50;;;;;;;4.28;3.50;;;;;;;;;;5050453;28;20143;-65
2023/05/19 00:09:18;;;;;;;3.83;2.85;;;;;;;;;;5049822;28;20744;-65
2023/05/19 00:11:46;;;;;;;5.40;3.38;;;;;;;;;;5049898;28;20044;-65
2023/05/19 00:14:13;;;;;;;5.13;3.25;;;;;;;;;;5049124;28;20052;-65
2023/05/19 00:16:41;;;;;;;7.70;3.22;;;;;;;;;;5049880;28;20053;-65
2023/05/19 00:19:08;;;;;;;4.97;3.10;;;;;;;;;;5049902;28;20045;-65
2023/05/19 00:21:36;;;;;;;7.55;3.65;;;;;;;;;;5049821;28;20061;-65
2023/05/19 00:24:03;;;;;;;5.88;3.67;;;;;;;;;;5049834;28;20049;-65
2023/05/19 00:26:30;;;;;;;7.72;3.47;;;;;;;;;;5049918;28;20051;-65
2023/05/19 00:28:58;;;;;;;5.10;3.17;;;;;;;;;;5049509;28;20067;-65
2023/05/19 00:31:24;;;;;;;4.85;3.38;;;;;;;;;;5049977;28;20049;-65
2023/05/19 00:33:51;;;;;;;5.32;3.47;;;;;;;;;;5049414;28;20053;-64
2023/05/19 00:36:18;;;;;;;6.63;3.40;;;;;;;;;;5049679;28;20537;-65
2023/05/19 00:38:44;;;;;;;5.60;3.00;;;;;;;;;;5049491;28;20049;-65
2023/05/19 00:41:11;;;;;;;5.28;3.05;;;;;;;;;;5049453;28;20049;-64
2023/05/19 00:43:38;;;;;;;6.72;3.22;;;;;;;;;;5050189;28;20041;-65
2023/05/19 00:46:06;;;;;;;5.75;3.55;;;;;;;;;;5049401;28;20048;-65
2023/05/19 00:48:33;;;;;;;7.13;3.70;;;;;;;;;;5049623;28;20053;-65
2023/05/19 00:51:03;;;;;;;6.00;3.33;;;;;;;;;;5049155;28;20053;-65
2023/05/19 00:53:30;;;;;;;8.68;3.63;;;;;;;;;;5049832;28;20486;-65
2023/05/19 00:55:57;;;;;;;5.53;3.67;;;;;;;;;;5049189;28;20048;-65
2023/05/19 00:58:27;;;;;;;4.55;3.17;;;;;;;;;;5049363;28;20045;-65
2023/05/19 01:00:55;;;;;;;6.78;3.78;;;;;;;;;;5048853;28;20045;-65
2023/05/19 01:03:24;;;;;;;6.97;3.42;;;;;;;;;;5049727;28;20463;-65
2023/05/19 01:05:53;;;;;;;4.85;3.25;;;;;;;;;;5049338;28;20053;-65
2023/05/19 01:08:20;;;;;;;5.85;3.30;;;;;;;;;;5049631;28;20057;-65
2023/05/19 01:10:47;;;;;;;5.65;3.28;;;;;;;;;;5049083;28;20133;-65
2023/05/19 01:13:14;;;;;;;5.03;3.25;;;;;;;;;;5049333;28;20095;-65
2023/05/19 01:15:58;;;;;;;5.43;3.33;;;;;;;;;;5049079;28;20498;-65
2023/05/19 01:18:34;;;;;;;5.35;3.08;;;;;;;;;;5049619;28;20511;-64
2023/05/19 01:21:17;;;;;;;6.07;3.65;;;;;;;;;;5049129;28;20049;-65
2023/05/19 01:23:53;;;;;;;10.32;3.63;;;;;;;;;;5049285;28;20052;-64
2023/05/19 01:26:43;;;;;;;4.88;3.20;;;;;;;;;;5050191;28;20509;-65
2023/05/19 01:29:39;;;;;;;4.57;3.30;;;;;;;;;;5053322;28;20071;-65
2023/05/19 01:32:09;;;;;;;5.90;3.20;;;;;;;;;;5050398;28;20075;-65
2023/05/19 01:34:42;;;;;;;4.75;3.13;;;;;;;;;;5052971;28;20072;-65
2023/05/19 01:37:09;;;;;;;4.25;3.00;;;;;;;;;;5052309;28;20063;-65
2023/05/19 01:39:36;;;;;;;6.95;3.58;;;;;;;;;;5052857;28;20125;-65
2023/05/19 01:42:04;;;;;;;6.18;3.35;;;;;;;;;;5052274;28;20053;-65
2023/05/19 01:44:32;;;;;;;5.63;3.22;;;;;;;;;;5052680;28;20048;-65
2023/05/19 01:49:29;;;;;;;5.35;3.45;;;;;;;;;;5010778;28;20054;-66
2023/05/19 01:51:56;;;;;;;4.80;3.17;;;;;;;;;;5013009;28;20053;-65
2023/05/19 01:54:22;;;;;;;4.88;3.17;;;;;;;;;;5012791;28;20053;-66
2023/05/19 01:56:55;;;;;;;6.35;3.22;;;;;;;;;;5012964;28;20137;-65
2023/05/19 01:59:34;;;;;;;5.45;3.38;;;;;;;;;;5012359;28;20491;-65
2023/05/19 02:02:03;;;;;;;5.03;3.20;;;;;;;;;;5012575;28;20116;-65
2023/05/19 02:04:39;;;;;;;7.75;3.13;;;;;;;;;;5012504;28;20046;-66
2023/05/19 02:07:13;;;;;;;7.82;3.28;;;;;;;;;;5012670;28;20049;-66
2023/05/19 02:09:50;;;;;;;5.40;3.53;;;;;;;;;;5011785;28;20041;-65
2023/05/19 02:12:20;;;;;;;5.53;2.80;;;;;;;;;;5012346;28;20492;-66
2023/05/19 02:14:52;;;;;;;8.95;3.65;;;;;;;;;;5012139;28;20050;-65
2023/05/19 02:17:20;;;;;;;6.35;3.95;;;;;;;;;;5012721;28;20538;-66
2023/05/19 02:19:48;;;;;;;5.25;3.28;;;;;;;;;;5012088;28;20412;-66
2023/05/19 02:22:15;;;;;;;4.88;3.17;;;;;;;;;;5012778;28;20049;-66
2023/05/19 02:24:43;;;;;;;5.47;3.75;;;;;;;;;;5011868;28;20077;-66
2023/05/19 02:27:09;;;;;;;5.68;3.30;;;;;;;;;;5012151;28;20141;-66
2023/05/19 02:29:36;;;;;;;5.72;3.42;;;;;;;;;;5011354;28;20049;-65
2023/05/19 02:32:02;;;;;;;6.50;3.97;;;;;;;;;;5012360;28;20415;-66
2023/05/19 02:34:29;;;;;;;5.07;3.50;;;;;;;;;;5011673;28;20056;-66
2023/05/19 02:36:57;;;;;;;8.07;3.40;;;;;;;;;;5012020;28;20042;-66
2023/05/19 02:39:23;;;;;;;4.80;3.45;;;;;;;;;;5011001;28;20053;-65
2023/05/19 02:41:50;;;;;;;5.20;3.45;;;;;;;;;;5011721;28;20053;-65
2023/05/19 02:44:16;;;;;;;5.65;3.90;;;;;;;;;;5012051;28;20056;-66
2023/05/19 02:46:43;;;;;;;6.50;3.70;;;;;;;;;;5011481;28;20537;-65
2023/05/19 02:49:10;;;;;;;6.60;4.30;;;;;;;;;;5011535;28;20049;-65
2023/05/19 02:51:36;;;;;;;8.07;4.03;;;;;;;;;;5010840;28;20046;-66
2023/05/19 02:54:04;;;;;;;5.63;3.80;;;;;;;;;;5011479;28;20273;-65
2023/05/19 02:56:31;;;;;;;6.07;3.80;;;;;;;;;;5011324;28;20483;-66
2023/05/19 02:58:58;;;;;;;7.53;3.65;;;;;;;;;;5011739;28;20061;-65
2023/05/19 03:01:24;;;;;;;5.22;4.07;;;;;;;;;;5010944;28;20045;-65
2023/05/19 03:03:51;;;;;;;6.18;3.80;;;;;;;;;;5011705;28;20053;-65
2023/05/19 03:06:18;;;;;;;5.90;3.75;;;;;;;;;;5010922;28;20057;-67
2023/05/19 03:08:44;;;;;;;5.70;3.90;;;;;;;;;;5011303;28;20053;-65
2023/05/19 03:11:14;;;;;;;4.47;3.55;;;;;;;;;;5011058;28;20080;-65
2023/05/19 03:13:40;;;;;;;7.40;3.70;;;;;;;;;;5011618;28;20142;-67
2023/05/19 03:16:07;;;;;;;8.13;4.60;;;;;;;;;;5011359;28;20045;-65
2023/05/19 03:18:33;;;;;;;5.50;4.03;;;;;;;;;;5010908;28;20054;-65
2023/05/19 03:21:00;;;;;;;5.63;3.78;;;;;;;;;;5010759;28;20046;-66
2023/05/19 03:23:27;;;;;;;5.70;4.00;;;;;;;;;;5011174;28;20408;-66
2023/05/19 03:25:54;;;;;;;7.55;4.07;;;;;;;;;;5011481;28;20103;-67
2023/05/19 03:28:22;;;;;;;5.68;3.58;;;;;;;;;;5010914;28;20411;-67
2023/05/19 03:30:49;;;;;;;5.78;3.65;;;;;;;;;;5011171;28;20492;-66
2023/05/19 03:33:16;;;;;;;7.43;3.63;;;;;;;;;;5010771;28;20192;-66
2023/05/19 03:35:43;;;;;;;4.80;3.63;;;;;;;;;;5010791;28;20045;-65
2023/05/19 03:38:10;;;;;;;6.72;3.85;;;;;;;;;;5010592;28;20472;-67
2023/05/19 03:40:36;;;;;;;5.97;3.70;;;;;;;;;;5010704;28;20487;-66
2023/05/19 03:43:03;;;;;;;7.57;3.78;;;;;;;;;;5010464;28;20061;-65
2023/05/19 03:45:30;;;;;;;4.70;3.50;;;;;;;;;;5010723;28;20118;-66
2023/05/19 03:47:57;;;;;;;5.97;3.55;;;;;;;;;;5010267;28;20050;-66
2023/05/19 03:50:26;;;;;;;7.97;3.97;;;;;;;;;;5010021;28;20061;-66
2023/05/19 03:52:52;;;;;;;6.03;3.63;;;;;;;;;;5010807;28;20124;-66
2023/05/19 03:55:20;;;;;;;4.63;3.38;;;;;;;;;;5010295;28;20057;-66
2023/05/19 03:57:47;;;;;;;4.68;3.63;;;;;;;;;;5010450;28;20061;-66
2023/05/19 04:00:15;;;;;;;5.68;3.40;;;;;;;;;;5009813;28;20096;-66
2023/05/19 04:02:43;;;;;;;5.60;3.70;;;;;;;;;;5010373;28;20092;-66
2023/05/19 04:05:10;;;;;;;6.05;3.70;;;;;;;;;;5010291;28;20050;-66
2023/05/19 04:07:36;;;;;;;6.75;3.83;;;;;;;;;;5010661;28;20052;-66
2023/05/19 04:10:05;;;;;;;7.35;3.92;;;;;;;;;;5009811;28;20065;-66
2023/05/19 04:12:31;;;;;;;4.88;3.88;;;;;;;;;;5010800;28;20048;-65
2023/05/19 04:14:58;;;;;;;5.88;3.78;;;;;;;;;;5010206;28;20159;-66
2023/05/19 04:17:26;;;;;;;5.95;4.05;;;;;;;;;;5009991;28;20057;-66
2023/05/19 04:19:54;;;;;;;7.75;4.03;;;;;;;;;;5009804;28;20050;-65
2023/05/19 04:22:20;;;;;;;4.10;3.47;;;;;;;;;;5010488;28;20057;-66
2023/05/19 04:24:47;;;;;;;4.75;3.63;;;;;;;;;;5010151;28;20615;-66
2023/05/19 04:27:14;;;;;;;6.28;4.10;;;;;;;;;;5010573;28;20452;-66
2023/05/19 04:29:41;;;;;;;6.97;3.95;;;;;;;;;;5009746;28;20515;-66
2023/05/19 04:32:09;;;;;;;6.63;4.05;;;;;;;;;;5010096;28;20054;-66
2023/05/19 04:34:39;;;;;;;5.90;3.80;;;;;;;;;;5010420;28;20194;-67
2023/05/19 04:37:08;;;;;;;5.05;3.78;;;;;;;;;;5010494;28;20049;-67
2023/05/19 04:39:37;;;;;;;4.75;3.83;;;;;;;;;;5009998;28;20090;-67
2023/05/19 04:42:04;;;;;;;6.70;3.88;;;;;;;;;;5009795;28;20046;-66
2023/05/19 04:44:32;;;;;;;7.05;3.80;;;;;;;;;;5009978;28;20056;-66
2023/05/19 04:46:59;;;;;;;5.97;3.70;;;;;;;;;;5010211;28;20464;-66
2023/05/19 04:49:25;;;;;;;7.80;3.92;;;;;;;;;;5009746;28;20054;-66
2023/05/19 04:51:52;;;;;;;4.43;3.60;;;;;;;;;;5009550;28;20065;-67
2023/05/19 04:54:20;;;;;;;5.93;3.90;;;;;;;;;;5010018;28;20046;-67
2023/05/19 04:56:46;;;;;;;4.07;3.70;;;;;;;;;;5009451;28;20133;-67
2023/05/19 04:59:13;;;;;;;7.28;4.38;;;;;;;;;;5010260;28;20046;-66
2023/05/19 05:01:39;;;;;;;5.68;3.92;;;;;;;;;;5011276;28;20052;-66
2023/05/19 05:04:06;;;;;;;4.00;3.60;;;;;;;;;;5013940;28;20046;-67
2023/05/19 05:06:33;;;;;;;7.40;4.20;;;;;;;;;;5013673;28;20050;-66
2023/05/19 05:09:02;;;;;;;7.15;3.97;;;;;;;;;;5013384;28;20057;-67
2023/05/19 05:11:31;;;;;;;5.45;3.75;;;;;;;;;;5013159;28;20135;-66
2023/05/19 05:13:58;;;;;;;6.07;4.50;;;;;;;;;;5013655;28;20069;-66
2023/05/19 05:16:25;;;;;;;5.38;3.63;;;;;;;;;;5013358;28;20081;-66
2023/05/19 05:18:52;;;;;;;6.43;4.25;;;;;;;;;;5013278;28;20427;-67
2023/05/19 05:21:19;;;;;;;5.95;4.20;;;;;;;;;;5013034;28;20054;-66
2023/05/19 05:23:47;;;;;;;6.68;4.15;;;;;;;;;;5012972;28;20165;-66
2023/05/19 05:26:18;;;;;;;5.95;3.95;;;;;;;;;;5013151;28;20149;-66
2023/05/19 05:28:46;;;;;;;6.55;4.07;;;;;;;;;;5013113;28;20421;-65
2023/05/19 05:31:12;;;;;;;4.60;3.65;;;;;;;;;;5012911;28;20316;-66
2023/05/19 05:33:39;;;;;;;5.55;3.75;;;;;;;;;;5012753;28;20046;-66
2023/05/19 05:36:06;;;;;;;7.80;3.95;;;;;;;;;;5013273;28;20093;-66
2023/05/19 05:38:32;;;;;;;7.75;3.90;;;;;;;;;;5012536;28;20046;-66
2023/05/19 05:40:59;;;;;;;5.65;3.10;;;;;;;;;;5013162;28;20081;-66
2023/05/19 05:43:26;;;;;;;5.47;3.20;;;;;;;;;;5013315;28;20096;-67
2023/05/19 05:45:54;;;;;;;7.93;3.95;;;;;;;;;;5012868;28;20073;-66
2023/05/19 05:48:21;;;;;;;7.05;3.30;;;;;;;;;;5013041;28;20050;-66
2023/05/19 05:50:48;;;;;;;4.78;2.60;;;;;;;;;;5012610;28;20049;-66
2023/05/19 05:53:19;;;;;;;5.57;2.38;;;;;;;;;;5012879;28;20419;-66
2023/05/19 05:55:46;;;;;;;4.32;2.47;;;;;;;;;;5012394;28;20046;-66
2023/05/19 05:58:13;;;;;;;5.82;2.53;;;;;;;;;;5012890;28;20420;-65
2023/05/19 06:00:42;;;;;;;5.95;2.38;;;;;;;;;;5011834;28;20050;-66
2023/05/19 06:03:10;;;;;;;3.80;2.60;;;;;;;;;;5012745;28;20488;-68
2023/05/19 06:05:37;;;;;;;4.13;1.95;;;;;;;;;;5011928;28;20308;-66
2023/05/19 06:08:04;;;;;;;7.47;2.05;;;;;;;;;;5012688;28;20081;-65
2023/05/19 06:10:30;;;;;;;5.38;2.17;;;;;;;;;;5012142;28;20050;-65
2023/05/19 06:12:57;;;;;;;5.45;1.85;;;;;;;;;;5011452;28;20113;-68
2023/05/19 06:15:24;;;;;;;3.55;1.90;;;;;;;;;;5011870;28;20046;-67
2023/05/19 06:17:50;;;;;;;5.50;2.40;;;;;;;;;;5012542;28;20050;-65
2023/05/19 06:20:18;;;;;;;2.92;2.08;;;;;;;;;;5011708;28;20054;-67
2023/05/19 06:22:45;;;;;;;5.57;2.20;;;;;;;;;;5012191;28;20136;-67
2023/05/19 06:25:12;;;;;;;3.97;2.13;;;;;;;;;;5012518;28;20411;-68
2023/05/19 06:27:39;;;;;;;3.85;2.10;;;;;;;;;;5011829;28;20505;-65
2023/05/19 06:30:07;;;;;;;2.17;1.92;;;;;;;;;;5011649;28;20046;-67
2023/05/19 06:32:34;;;;;;;4.40;2.10;;;;;;;;;;5011562;28;20054;-66
2023/05/19 06:35:00;;;;;;;5.07;1.90;;;;;;;;;;5011877;28;20081;-67
2023/05/19 06:37:28;;;;;;;4.97;2.03;;;;;;;;;;5011692;28;20058;-66
2023/05/19 06:39:55;;;;;;;5.43;2.05;;;;;;;;;;5011713;28;20141;-66
2023/05/19 06:42:22;;;;;;;5.43;2.42;;;;;;;;;;5011545;28;20042;-67
2023/05/19 06:44:49;;;;;;;5.63;2.20;;;;;;;;;;5011897;28;20046;-66
2023/05/19 06:47:16;;;;;;;4.43;2.53;;;;;;;;;;5011112;28;20041;-66
2023/05/19 06:49:42;;;;;;;4.10;2.13;;;;;;;;;;5011721;28;20045;-66
2023/05/19 06:52:09;;;;;;;5.38;2.00;;;;;;;;;;5012000;28;20050;-66
2023/05/19 06:54:37;;;;;;;5.25;1.80;;;;;;;;;;5011902;28;20061;-66
2023/05/19 06:57:04;;;;;;;4.32;2.42;;;;;;;;;;5011715;28;20050;-66
2023/05/19 06:59:30;;;;;;;3.22;1.90;;;;;;;;;;5010718;28;20518;-67
2023/05/19 07:01:57;;;;;;;3.22;1.90;;;;;;;;;;5011534;28;20514;-66
2023/05/19 07:04:23;;;;;;;5.78;2.15;;;;;;;;;;5011360;28;20048;-67
2023/05/19 07:06:50;;;;;;;5.78;1.90;;;;;;;;;;5011724;28;20046;-67
2023/05/19 07:09:17;;;;;;;5.13;1.80;;;;;;;;;;5010894;28;20050;-66
2023/05/19 07:11:44;;;;;;;4.68;2.03;;;;;;;;;;5011126;28;20065;-66
2023/05/19 07:14:11;;;;;;;4.85;2.00;;;;;;;;;;5010865;28;20046;-65
2023/05/19 07:16:38;;;;;;;3.50;1.85;;;;;;;;;;5010988;28;20046;-66
2023/05/19 07:19:04;;;;;;;3.38;1.70;;;;;;;;;;5011108;28;20073;-66
2023/05/19 07:21:31;;;;;;;4.88;1.80;;;;;;;;;;5010873;28;20064;-66
2023/05/19 07:23:57;;;;;;;3.47;1.58;;;;;;;;;;5010664;28;20050;-66
2023/05/19 07:26:25;;;;;;;4.45;2.42;;;;;;;;;;5010975;28;20078;-66
2023/05/19 07:28:53;;;;;;;2.40;1.83;;;;;;;;;;5010785;28;20061;-67
2023/05/19 07:31:19;;;;;;;5.15;1.90;;;;;;;;;;5011126;28;20069;-66
2023/05/19 07:33:46;;;;;;;4.13;2.00;;;;;;;;;;5011248;28;20046;-66
2023/05/19 07:36:12;;;;;;;5.20;1.85;;;;;;;;;;5010777;28;20061;-66
2023/05/19 07:38:39;;;;;;;7.20;1.80;;;;;;;;;;5011120;28;20065;-67
2023/05/19 07:41:05;;;;;;;4.05;1.90;;;;;;;;;;5010493;28;20506;-66
2023/05/19 07:43:32;;;;;;;3.45;2.00;;;;;;;;;;5010721;28;20068;-66
2023/05/19 07:46:00;;;;;;;4.63;2.03;;;;;;;;;;5010700;28;20113;-66
2023/05/19 07:48:28;;;;;;;3.65;2.33;;;;;;;;;;5010670;28;20502;-66
2023/05/19 07:50:55;;;;;;;4.90;1.88;;;;;;;;;;5010195;28;20050;-67
2023/05/19 07:53:21;;;;;;;4.47;1.98;;;;;;;;;;5011078;28;20052;-66
2023/05/19 07:55:48;;;;;;;4.88;1.80;;;;;;;;;;5010486;28;20049;-66
2023/05/19 07:58:15;;;;;;;9.20;2.92;;;;;;;;;;5001453;28;20054;-67
2023/05/19 08:00:42;;;;;;;7.07;1.80;;;;;;;;;;5003089;28;20096;-65
2023/05/19 08:03:10;;;;;;;2.40;1.60;;;;;;;;;;5010697;28;20061;-67
2023/05/19 08:05:37;;;;;;;5.20;2.00;;;;;;;;;;5010518;28;20089;-66
2023/05/19 08:08:04;;;;;;;2.22;1.50;;;;;;;;;;5010063;28;20479;-65
2023/05/19 08:10:31;;;;;;;3.75;1.70;;;;;;;;;;5009675;28;20511;-66
2023/05/19 08:12:57;;;;;;;5.15;1.88;;;;;;;;;;5010159;28;20060;-67
2023/05/19 08:15:24;;;;;;;6.45;1.80;;;;;;;;;;5010721;28;20408;-66
2023/05/19 08:17:50;;;;;;;6.15;1.90;;;;;;;;;;5010125;28;20045;-66
2023/05/19 08:20:19;;;;;;;7.13;1.80;;;;;;;;;;5009629;28;20046;-67
2023/05/19 08:22:45;;;;;;;3.22;1.50;;;;;;;;;;5010242;28;20046;-66
2023/05/19 08:25:12;;;;;;;5.95;1.70;;;;;;;;;;5009693;28;20057;-66
2023/05/19 08:27:39;;;;;;;5.95;1.88;;;;;;;;;;5010175;28;20496;-66
2023/05/19 08:30:07;;;;;;;6.38;1.88;;;;;;;;;;5009502;28;20046;-66
2023/05/19 08:32:34;;;;;;;2.97;1.67;;;;;;;;;;5007333;28;20046;-66
2023/05/19 08:35:00;;;;;;;6.40;1.83;;;;;;;;;;5009257;28;20388;-66
2023/05/19 08:37:28;;;;;;;2.45;1.60;;;;;;;;;;5009426;28;20551;-67
2023/05/19 08:39:55;;;;;;;6.43;1.90;;;;;;;;;;5009022;28;20054;-65
2023/05/19 08:42:22;;;;;;;5.88;1.90;;;;;;;;;;5010188;28;20137;-67
2023/05/19 08:44:49;;;;;;;3.72;1.88;;;;;;;;;;5009609;28;20054;-67
2023/05/19 08:47:17;;;;;;;5.53;1.48;;;;;;;;;;5009854;28;20054;-66
2023/05/19 08:49:45;;;;;;;4.38;2.25;;;;;;;;;;5007048;28;20116;-66
2023/05/19 08:52:21;;;;;;;6.78;2.10;;;;;;;;;;5009863;28;20046;-66
2023/05/19 08:54:54;;;;;;;7.25;1.70;;;;;;;;;;5010183;28;20472;-66
2023/05/19 08:57:22;;;;;;;5.35;1.80;;;;;;;;;;5009618;28;20046;-66
2023/05/19 08:59:50;;;;;;;5.18;1.90;;;;;;;;;;5009608;28;20514;-67
2023/05/19 09:02:19;;;;;;;4.80;1.85;;;;;;;;;;5009877;28;20050;-67
2023/05/19 09:04:46;;;;;;;4.80;1.80;;;;;;;;;;5009755;28;20472;-66
2023/05/19 09:07:13;;;;;;;4.75;1.90;;;;;;;;;;5009628;28;20045;-66
2023/05/19 09:09:42;;;;;;;3.42;1.92;;;;;;;;;;5009289;28;20050;-66
2023/05/19 09:12:10;;;;;;;2.30;1.58;;;;;;;;;;5010009;28;19921;-68
2023/05/19 09:14:37;;;;;;;5.85;1.80;;;;;;;;;;5009630;28;20132;-66
2023/05/19 09:17:05;;;;;;;6.40;1.80;;;;;;;;;;5009682;28;20048;-66
2023/05/19 09:19:31;;;;;;;5.13;1.63;;;;;;;;;;5006268;28;20080;-66
2023/05/19 09:21:59;;;;;;;3.22;1.80;;;;;;;;;;5009949;28;20057;-65
2023/05/19 09:24:27;;;;;;;4.03;2.00;;;;;;;;;;5009644;28;20104;-66
2023/05/19 09:26:56;;;;;;;4.55;1.90;;;;;;;;;;5009675;28;20057;-68
2023/05/19 09:29:24;;;;;;;6.63;1.67;;;;;;;;;;5009168;28;20069;-67
2023/05/19 09:31:53;;;;;;;4.82;1.88;;;;;;;;;;5008852;28;20045;-66
2023/05/19 09:34:20;;;;;;;4.07;1.60;;;;;;;;;;5009640;28;20411;-65
2023/05/19 09:36:48;;;;;;;6.40;1.90;;;;;;;;;;5009681;28;20045;-68
2023/05/19 09:39:15;;;;;;;8.60;2.22;;;;;;;;;;5009599;28;20458;-67
2023/05/19 09:41:42;;;;;;;5.88;2.05;;;;;;;;;;5008492;28;20149;-66
2023/05/19 09:44:13;;;;;;;3.50;2.10;;;;;;;;;;5009629;28;20046;-67
2023/05/19 09:46:47;;;;;;;10.80;2.63;;;;;;;;;;5008903;28;20504;-66
2023/05/19 09:49:18;;;;;;;4.40;1.67;;;;;;;;;;5011282;28;20046;-66
2023/05/19 09:51:44;;;;;;;2.50;1.65;;;;;;;;;;5010895;28;20048;-67
2023/05/19 09:54:15;;;;;;;6.13;1.70;;;;;;;;;;5013414;28;20046;-66
2023/05/19 09:56:41;;;;;;;6.18;1.85;;;;;;;;;;5012456;28;20185;-67
2023/05/19 09:59:08;;;;;;;2.00;1.42;;;;;;;;;;5012719;28;20046;-66
2023/05/19 10:01:36;;;;;;;3.30;1.70;;;;;;;;;;5012561;28;20427;-67
2023/05/19 10:04:04;;;;;;;2.92;1.67;;;;;;;;;;5012913;28;20095;-66
2023/05/19 10:06:31;;;;;;;5.53;1.70;;;;;;;;;;5012686;28;20049;-67
2023/05/19 10:08:59;;;;;;;4.72;1.75;;;;;;;;;;5012779;28;20503;-66
2023/05/19 10:11:27;;;;;;;3.17;1.67;;;;;;;;;;5011700;28;20486;-66
2023/05/19 10:13:53;;;;;;;3.85;1.85;;;;;;;;;;5012547;28;20076;-66
2023/05/19 10:16:22;;;;;;;4.63;1.48;;;;;;;;;;5012125;28;20046;-66
2023/05/19 10:18:51;;;;;;;2.75;1.80;;;;;;;;;;5011775;28;20481;-67
2023/05/19 10:21:19;;;;;;;4.75;1.83;;;;;;;;;;5010997;28;20050;-67
2023/05/19 10:23:46;;;;;;;3.67;1.52;;;;;;;;;;5011742;28;20057;-66
2023/05/19 10:26:13;;;;;;;3.85;1.85;;;;;;;;;;5012163;28;20042;-66
2023/05/19 10:28:42;;;;;;;2.65;1.58;;;;;;;;;;5012277;28;20046;-67
2023/05/19 10:31:13;;;;;;;6.20;2.20;;;;;;;;;;5011712;28;20503;-66
2023/05/19 10:33:59;;;;;;;4.22;1.77;;;;;;;;;;5012145;28;20046;-68
2023/05/19 10:36:39;;;;;;;3.80;1.77;;;;;;;;;;5011517;28;20038;-66
2023/05/19 10:39:12;;;;;;;4.22;1.90;;;;;;;;;;5012139;28;20053;-67
2023/05/19 10:41:46;;;;;;;5.53;1.60;;;;;;;;;;5011684;28;20129;-67
2023/05/19 10:44:22;;;;;;;4.70;2.20;;;;;;;;;;5011993;28;20046;-67
2023/05/19 10:46:49;;;;;;;5.03;1.67;;;;;;;;;;5011258;28;20345;-67
2023/05/19 10:49:20;;;;;;;3.97;1.98;;;;;;;;;;5011437;28;20057;-66
2023/05/19 10:51:48;;;;;;;5.47;1.92;;;;;;;;;;5011282;28;20100;-66
2023/05/19 10:54:15;;;;;;;3.78;1.77;;;;;;;;;;5011801;28;20061;-67
2023/05/19 10:56:46;;;;;;;3.47;1.70;;;;;;;;;;5010984;28;20050;-67
2023/05/19 10:59:30;;;;;;;4.95;2.05;;;;;;;;;;5010929;28;20046;-66
2023/05/19 11:01:57;;;;;;;4.97;1.75;;;;;;;;;;5011750;28;20077;-67
2023/05/19 11:04:39;;;;;;;6.63;1.90;;;;;;;;;;5011713;28;20088;-67
2023/05/19 11:07:09;;;;;;;4.20;2.05;;;;;;;;;;5011028;28;20056;-66
2023/05/19 11:09:40;;;;;;;4.40;2.05;;;;;;;;;;5011354;28;20069;-66
2023/05/19 11:12:09;;;;;;;4.25;1.52;;;;;;;;;;5011524;28;20479;-67
2023/05/19 11:14:36;;;;;;;4.03;1.65;;;;;;;;;;5011348;28;20517;-66
2023/05/19 11:17:04;;;;;;;8.57;1.60;;;;;;;;;;5011810;28;20173;-66
2023/05/19 11:19:32;;;;;;;4.10;1.58;;;;;;;;;;5011106;28;20053;-68
2023/05/19 11:22:10;;;;;;;5.05;2.00;;;;;;;;;;5011297;28;20050;-67
2023/05/19 11:24:38;;;;;;;7.18;2.10;;;;;;;;;;5011060;28;20590;-66
2023/05/19 11:27:22;;;;;;;3.95;1.67;;;;;;;;;;5011183;28;20046;-68
2023/05/19 11:29:50;;;;;;;7.60;1.80;;;;;;;;;;5010391;28;20424;-67
2023/05/19 11:32:17;;;;;;;6.55;2.00;;;;;;;;;;5010843;28;20132;-67
2023/05/19 11:34:44;;;;;;;3.97;1.60;;;;;;;;;;5010305;28;20050;-68
2023/05/19 11:37:12;;;;;;;5.22;1.50;;;;;;;;;;5011177;28;20046;-66
2023/05/19 11:39:39;;;;;;;5.30;1.50;;;;;;;;;;5010387;28;20057;-66
2023/05/19 11:42:08;;;;;;;4.72;1.60;;;;;;;;;;5010749;28;20137;-66
2023/05/19 11:44:34;;;;;;;5.03;1.95;;;;;;;;;;5010974;28;20046;-66
2023/05/19 11:47:01;;;;;;;4.50;1.70;;;;;;;;;;5010320;28;20056;-65
2023/05/19 11:49:28;;;;;;;5.15;1.70;;;;;;;;;;5010205;28;20060;-66
2023/05/19 11:51:55;;;;;;;5.47;1.90;;;;;;;;;;5010459;28;20049;-67
2023/05/19 11:54:30;;;;;;;8.68;1.80;;;;;;;;;;5011201;28;20061;-65
2023/05/19 11:56:56;;;;;;;4.45;1.45;;;;;;;;;;5010364;28;20049;-68
2023/05/19 11:59:30;;;;;;;3.78;1.60;;;;;;;;;;5010644;28;20046;-66
2023/05/19 12:01:57;;;;;;;2.83;1.58;;;;;;;;;;5009929;28;20065;-66
2023/05/19 12:04:23;;;;;;;4.45;1.60;;;;;;;;;;5010711;28;20046;-66
2023/05/19 12:06:51;;;;;;;2.83;1.77;;;;;;;;;;5008990;28;20054;-68
2023/05/19 12:09:18;;;;;;;4.93;1.60;;;;;;;;;;5010119;28;20060;-66
2023/05/19 12:11:47;;;;;;;3.20;1.80;;;;;;;;;;5008978;28;20052;-68
2023/05/19 12:14:13;;;;;;;5.13;2.00;;;;;;;;;;5010126;28;20113;-65
2023/05/19 12:16:40;;;;;;;3.53;1.60;;;;;;;;;;5010207;28;20050;-65
2023/05/19 12:19:08;;;;;;;3.50;1.58;;;;;;;;;;5010440;28;20428;-67
2023/05/19 12:21:35;;;;;;;4.47;2.00;;;;;;;;;;5010400;28;20046;-68
2023/05/19 12:24:02;;;;;;;4.05;1.55;;;;;;;;;;5010315;28;20046;-66
2023/05/19 12:26:28;;;;;;;3.55;1.70;;;;;;;;;;5010794;28;20061;-65
2023/05/19 12:28:58;;;;;;;4.40;2.10;;;;;;;;;;5009780;28;20053;-67
2023/05/19 12:31:25;;;;;;;3.78;1.80;;;;;;;;;;5009868;28;20050;-67
2023/05/19 12:33:52;;;;;;;7.50;1.75;;;;;;;;;;5010176;28;20050;-65
2023/05/19 12:36:19;;;;;;;3.67;1.70;;;;;;;;;;5009751;28;20057;-67
2023/05/19 12:38:46;;;;;;;2.17;1.40;;;;;;;;;;5010195;28;20046;-66
2023/05/19 12:41:13;;;;;;;3.88;1.85;;;;;;;;;;5009636;28;20050;-66
2023/05/19 12:43:41;;;;;;;3.55;1.60;;;;;;;;;;5010613;28;20088;-66
2023/05/19 12:46:12;;;;;;;3.25;1.50;;;;;;;;;;5009575;28;20148;-67
2023/05/19 12:48:41;;;;;;;3.53;1.57;;;;;;;;;;5010013;28;20050;-67
2023/05/19 12:51:08;;;;;;;5.18;1.95;;;;;;;;;;5009211;28;20287;-67
2023/05/19 12:53:36;;;;;;;4.13;1.90;;;;;;;;;;5010351;28;20077;-66
2023/05/19 12:56:11;;;;;;;4.18;1.50;;;;;;;;;;5009503;28;20057;-67
2023/05/19 12:58:38;;;;;;;4.03;1.45;;;;;;;;;;5010445;28;20503;-66
2023/05/19 13:01:06;;;;;;;6.15;1.67;;;;;;;;;;5009416;28;20172;-67
2023/05/19 13:03:40;;;;;;;2.35;1.38;;;;;;;;;;5010172;28;20076;-66
2023/05/19 13:06:07;;;;;;;5.05;1.45;;;;;;;;;;5009758;28;20049;-67
2023/05/19 13:08:33;;;;;;;2.25;1.50;;;;;;;;;;5010217;28;20403;-67
2023/05/19 13:11:00;;;;;;;5.82;1.52;;;;;;;;;;5009697;28;20590;-67
2023/05/19 13:13:30;;;;;;;3.75;1.60;;;;;;;;;;5010596;28;20050;-67
2023/05/19 13:15:57;;;;;;;4.50;1.90;;;;;;;;;;5010218;28;20045;-68
2023/05/19 13:18:26;;;;;;;4.10;1.60;;;;;;;;;;5010000;28;20050;-67
2023/05/19 13:20:54;;;;;;;3.15;1.70;;;;;;;;;;5009563;28;20052;-68
2023/05/19 13:23:20;;;;;;;4.43;1.65;;;;;;;;;;5012497;28;20049;-68
2023/05/19 13:25:47;;;;;;;4.15;1.40;;;;;;;;;;5014039;28;20391;-67
2023/05/19 13:28:13;;;;;;;3.70;1.38;;;;;;;;;;5013972;28;20054;-66
2023/05/19 13:30:43;;;;;;;3.08;1.20;;;;;;;;;;5013467;28;20562;-67
2023/05/19 13:33:10;;;;;;;2.95;1.40;;;;;;;;;;5013066;28;20049;-67
2023/05/19 13:35:36;;;;;;;2.58;1.52;;;;;;;;;;5013317;28;20104;-67
2023/05/19 13:38:05;;;;;;;5.32;1.33;;;;;;;;;;5013573;28;20046;-68
2023/05/19 13:40:33;;;;;;;3.53;1.33;;;;;;;;;;5012932;28;20049;-67
2023/05/19 13:43:00;;;;;;;2.42;1.30;;;;;;;;;;5012977;28;20551;-66
2023/05/19 13:45:27;;;;;;;3.20;1.38;;;;;;;;;;5013228;28;20046;-67
2023/05/19 13:47:54;;;;;;;2.70;1.23;;;;;;;;;;5066983;22;20160;-81
2023/05/19 13:50:21;;;;;;;3.88;1.73;;;;;;;;;;5041569;28;20060;-81
2023/05/19 13:52:48;;;;;;;6.75;1.58;;;;;;;;;;5040448;28;20113;-84
2023/05/19 13:55:16;;;;;;;3.50;1.40;;;;;;;;;;5041548;28;20049;-81
2023/05/19 13:57:42;;;;;;;4.65;1.50;;;;;;;;;;5042485;28;20107;-81
2023/05/19 14:00:10;;;;;;;2.35;1.30;;;;;;;;;;5041966;28;20042;-81
2023/05/19 14:02:37;;;;;;;3.28;1.23;;;;;;;;;;5049874;28;20049;-80
2023/05/19 14:05:04;;;;;;;2.75;1.27;;;;;;;;;;5053359;28;20072;-80
2023/05/19 14:07:33;;;;;;;3.75;1.52;;;;;;;;;;5047901;28;20060;-81
2023/05/19 14:10:00;;;;;;;6.82;1.45;;;;;;;;;;5044044;28;20093;-82
2023/05/19 14:12:29;;;;;;;2.55;1.30;;;;;;;;;;5044044;28;20057;-81
2023/05/19 14:14:56;;;;;;;10.13;2.28;;;;;;;;;;5041806;28;20051;-82
2023/05/19 14:17:22;;;;;;;4.32;1.92;;;;;;;;;;5041912;28;20053;-82
2023/05/19 14:19:49;;;;;;;2.53;1.58;;;;;;;;;;5039020;28;20059;-82
2023/05/19 14:22:16;;;;;;;2.72;1.17;;;;;;;;;;5045204;28;20050;-83
2023/05/19 14:24:43;;;;;;;3.80;1.50;;;;;;;;;;5039699;28;20052;-82
2023/05/19 14:27:10;;;;;;;2.92;1.40;;;;;;;;;;5037629;28;20045;-82
2023/05/19 14:29:38;;;;;;;2.00;1.35;;;;;;;;;;5037126;28;20056;-82
2023/05/19 14:32:05;;;;;;;3.03;1.63;;;;;;;;;;5037038;28;20056;-82
2023/05/19 14:34:31;;;;;;;3.33;1.45;;;;;;;;;;5037079;28;20053;-82
2023/05/19 14:36:58;;;;;;;2.33;1.30;;;;;;;;;;5038404;28;20056;-81
2023/05/19 14:39:24;;;;;;;2.92;1.50;;;;;;;;;;5037222;28;20132;-83
2023/05/19 14:41:51;;;;;;;2.05;1.20;;;;;;;;;;5038124;28;20042;-82
2023/05/19 14:44:18;;;;;;;4.15;1.40;;;;;;;;;;5037682;28;20443;-82
2023/05/19 14:46:46;;;;;;;3.42;1.35;;;;;;;;;;5037392;28;20053;-82
2023/05/19 14:49:12;;;;;;;2.72;1.48;;;;;;;;;;5040937;28;20065;-84
2023/05/19 14:51:39;;;;;;;2.70;1.10;;;;;;;;;;5037321;28;20045;-82